sensor_id;sensor_type;location;lat;lon;timestamp;temperature;humidity
2577;DHT22;1298;51.252;6.802;2022-12-19T00:02:16;0.60;99.90
2577;DHT22;1298;51.252;6.802;2022-12-19T00:05:03;0.50;99.90
2577;DHT22;1298;51.252;6.802;2022-12-19T00:07:49;0.60;99.90
2577;DHT22;1298;51.252;6.802;2022-12-19T00:10:34;0.60;99.90
2577;DHT22;1298;51.252;6.802;2022-12-19T00:13:20;0.70;99.90
2577;DHT22;1298;51.252;6.802;2022-12-19T00:16:05;0.80;99.90
2577;DHT22;1298;51.252;6.802;2022-12-19T00:18:51;0.80;99.90
2577;DHT22;1298;51.252;6.802;2022-12-19T00:21:39;0.80;99.90
2577;DHT22;1298;51.252;6.802;2022-12-19T00:24:24;0.80;99.90
2577;DHT22;1298;51.252;6.802;2022-12-19T00:27:09;0.90;99.90
2577;DHT22;1298;51.252;6.802;2022-12-19T00:29:55;1.30;99.90
2577;DHT22;1298;51.252;6.802;2022-12-19T00:32:40;1.30;99.90
2577;DHT22;1298;51.252;6.802;2022-12-19T00:35:25;1.20;99.90
2577;DHT22;1298;51.252;6.802;2022-12-19T00:38:11;1.20;99.90
2577;DHT22;1298;51.252;6.802;2022-12-19T00:41:04;1.20;99.90
2577;DHT22;1298;51.252;6.802;2022-12-19T00:43:51;1.20;99.90
2577;DHT22;1298;51.252;6.802;2022-12-19T00:46:36;1.20;99.90
2577;DHT22;1298;51.252;6.802;2022-12-19T00:49:22;1.10;99.90
2577;DHT22;1298;51.252;6.802;2022-12-19T00:52:07;1.10;99.90
2577;DHT22;1298;51.252;6.802;2022-12-19T00:54:54;1.20;99.90
2577;DHT22;1298;51.252;6.802;2022-12-19T00:57:40;1.20;99.90
2577;DHT22;1298;51.252;6.802;2022-12-19T01:00:25;1.20;99.90
2577;DHT22;1298;51.252;6.802;2022-12-19T01:03:10;1.20;99.90
2577;DHT22;1298;51.252;6.802;2022-12-19T01:05:56;1.30;99.90
2577;DHT22;1298;51.252;6.802;2022-12-19T01:08:41;1.20;99.90
2577;DHT22;1298;51.252;6.802;2022-12-19T01:11:28;1.30;99.90
2577;DHT22;1298;51.252;6.802;2022-12-19T01:14:27;1.30;99.90
2577;DHT22;1298;51.252;6.802;2022-12-19T01:17:12;1.30;99.90
2577;DHT22;1298;51.252;6.802;2022-12-19T01:19:58;1.30;99.90
2577;DHT22;1298;51.252;6.802;2022-12-19T01:22:44;1.30;99.90
2577;DHT22;1298;51.252;6.802;2022-12-19T01:25:29;1.30;99.90
2577;DHT22;1298;51.252;6.802;2022-12-19T01:28:15;1.30;99.90
2577;DHT22;1298;51.252;6.802;2022-12-19T01:31:03;1.30;99.90
2577;DHT22;1298;51.252;6.802;2022-12-19T01:33:48;1.30;99.90
2577;DHT22;1298;51.252;6.802;2022-12-19T01:36:33;1.30;99.90
2577;DHT22;1298;51.252;6.802;2022-12-19T01:39:19;1.40;99.90
2577;DHT22;1298;51.252;6.802;2022-12-19T01:42:07;1.40;99.90
2577;DHT22;1298;51.252;6.802;2022-12-19T01:45:03;1.40;99.90
2577;DHT22;1298;51.252;6.802;2022-12-19T01:47:49;1.50;99.90
2577;DHT22;1298;51.252;6.802;2022-12-19T01:50:37;1.50;99.90
2577;DHT22;1298;51.252;6.802;2022-12-19T01:53:23;1.50;99.90
2577;DHT22;1298;51.252;6.802;2022-12-19T01:56:10;1.50;99.90
2577;DHT22;1298;51.252;6.802;2022-12-19T01:58:57;1.50;99.90
2577;DHT22;1298;51.252;6.802;2022-12-19T02:01:45;1.60;99.90
2577;DHT22;1298;51.252;6.802;2022-12-19T02:04:30;1.60;99.90
2577;DHT22;1298;51.252;6.802;2022-12-19T02:07:16;1.60;99.90
2577;DHT22;1298;51.252;6.802;2022-12-19T02:10:03;1.60;99.90
2577;DHT22;1298;51.252;6.802;2022-12-19T02:12:48;1.60;99.90
2577;DHT22;1298;51.252;6.802;2022-12-19T02:15:34;1.70;99.90
2577;DHT22;1298;51.252;6.802;2022-12-19T02:18:28;1.70;99.90
2577;DHT22;1298;51.252;6.802;2022-12-19T02:27:44;1.80;99.90
2577;DHT22;1298;51.252;6.802;2022-12-19T02:30:37;1.90;99.90
2577;DHT22;1298;51.252;6.802;2022-12-19T02:33:25;1.90;99.90
2577;DHT22;1298;51.252;6.802;2022-12-19T02:36:15;1.90;99.90
2577;DHT22;1298;51.252;6.802;2022-12-19T02:39:02;2.00;99.90
2577;DHT22;1298;51.252;6.802;2022-12-19T02:41:51;2.00;99.90
2577;DHT22;1298;51.252;6.802;2022-12-19T02:44:40;2.10;99.90
2577;DHT22;1298;51.252;6.802;2022-12-19T02:47:28;2.10;99.90
2577;DHT22;1298;51.252;6.802;2022-12-19T02:50:14;2.10;99.90
2577;DHT22;1298;51.252;6.802;2022-12-19T02:53:00;2.10;99.90
2577;DHT22;1298;51.252;6.802;2022-12-19T02:55:47;2.20;99.90
2577;DHT22;1298;51.252;6.802;2022-12-19T02:58:49;2.20;99.90
2577;DHT22;1298;51.252;6.802;2022-12-19T03:01:39;2.20;99.90
2577;DHT22;1298;51.252;6.802;2022-12-19T03:04:30;2.20;99.90
2577;DHT22;1298;51.252;6.802;2022-12-19T03:07:20;2.30;99.90
2577;DHT22;1298;51.252;6.802;2022-12-19T03:10:14;2.30;99.90
2577;DHT22;1298;51.252;6.802;2022-12-19T03:13:04;2.30;99.90
2577;DHT22;1298;51.252;6.802;2022-12-19T03:15:52;2.30;99.90
2577;DHT22;1298;51.252;6.802;2022-12-19T03:18:38;2.40;99.90
2577;DHT22;1298;51.252;6.802;2022-12-19T03:21:28;2.40;99.90
2577;DHT22;1298;51.252;6.802;2022-12-19T03:24:15;2.40;99.90
2577;DHT22;1298;51.252;6.802;2022-12-19T03:27:02;2.40;99.90
2577;DHT22;1298;51.252;6.802;2022-12-19T03:29:49;2.50;99.90
2577;DHT22;1298;51.252;6.802;2022-12-19T03:32:38;2.50;99.90
2577;DHT22;1298;51.252;6.802;2022-12-19T03:35:25;2.50;99.90
2577;DHT22;1298;51.252;6.802;2022-12-19T03:38:13;2.50;99.90
2577;DHT22;1298;51.252;6.802;2022-12-19T03:41:00;2.50;99.90
2577;DHT22;1298;51.252;6.802;2022-12-19T03:43:46;2.50;99.90
2577;DHT22;1298;51.252;6.802;2022-12-19T03:46:30;2.50;99.90
2577;DHT22;1298;51.252;6.802;2022-12-19T03:49:16;2.50;99.90
2577;DHT22;1298;51.252;6.802;2022-12-19T03:52:04;2.60;99.90
2577;DHT22;1298;51.252;6.802;2022-12-19T03:54:58;2.70;99.90
2577;DHT22;1298;51.252;6.802;2022-12-19T03:57:46;2.80;99.90
2577;DHT22;1298;51.252;6.802;2022-12-19T04:00:35;2.80;99.90
2577;DHT22;1298;51.252;6.802;2022-12-19T04:03:21;2.70;99.90
2577;DHT22;1298;51.252;6.802;2022-12-19T04:06:07;2.70;99.90
2577;DHT22;1298;51.252;6.802;2022-12-19T04:08:53;2.60;99.90
2577;DHT22;1298;51.252;6.802;2022-12-19T04:11:41;2.60;99.90
2577;DHT22;1298;51.252;6.802;2022-12-19T04:14:30;2.60;99.90
2577;DHT22;1298;51.252;6.802;2022-12-19T04:17:18;2.60;99.90
2577;DHT22;1298;51.252;6.802;2022-12-19T04:20:06;2.60;99.90
2577;DHT22;1298;51.252;6.802;2022-12-19T04:22:53;2.60;99.90
2577;DHT22;1298;51.252;6.802;2022-12-19T04:25:41;2.60;99.90
2577;DHT22;1298;51.252;6.802;2022-12-19T04:28:30;2.60;99.90
2577;DHT22;1298;51.252;6.802;2022-12-19T04:31:17;2.60;99.90
2577;DHT22;1298;51.252;6.802;2022-12-19T04:34:04;2.70;99.90
2577;DHT22;1298;51.252;6.802;2022-12-19T04:36:49;2.80;99.90
2577;DHT22;1298;51.252;6.802;2022-12-19T04:39:34;2.70;99.90
2577;DHT22;1298;51.252;6.802;2022-12-19T04:42:19;2.70;99.90
2577;DHT22;1298;51.252;6.802;2022-12-19T04:45:06;2.70;99.90
2577;DHT22;1298;51.252;6.802;2022-12-19T04:47:52;2.70;99.90
2577;DHT22;1298;51.252;6.802;2022-12-19T04:50:37;2.70;99.90
2577;DHT22;1298;51.252;6.802;2022-12-19T04:53:22;2.70;99.90
2577;DHT22;1298;51.252;6.802;2022-12-19T04:56:08;2.70;99.90
2577;DHT22;1298;51.252;6.802;2022-12-19T04:58:55;2.70;99.90
2577;DHT22;1298;51.252;6.802;2022-12-19T05:01:42;2.70;99.90
2577;DHT22;1298;51.252;6.802;2022-12-19T05:04:27;2.70;99.90
2577;DHT22;1298;51.252;6.802;2022-12-19T05:07:12;2.70;99.90
2577;DHT22;1298;51.252;6.802;2022-12-19T05:09:58;2.70;99.90
2577;DHT22;1298;51.252;6.802;2022-12-19T05:12:43;2.70;99.90
2577;DHT22;1298;51.252;6.802;2022-12-19T05:15:29;2.70;99.90
2577;DHT22;1298;51.252;6.802;2022-12-19T05:18:15;2.60;99.90
2577;DHT22;1298;51.252;6.802;2022-12-19T05:21:00;2.70;99.90
2577;DHT22;1298;51.252;6.802;2022-12-19T05:23:46;2.70;99.90
2577;DHT22;1298;51.252;6.802;2022-12-19T05:26:31;2.70;99.90
2577;DHT22;1298;51.252;6.802;2022-12-19T05:29:16;2.70;99.90
2577;DHT22;1298;51.252;6.802;2022-12-19T05:32:02;2.70;99.90
2577;DHT22;1298;51.252;6.802;2022-12-19T05:34:49;2.60;99.90
2577;DHT22;1298;51.252;6.802;2022-12-19T05:37:34;2.70;99.90
2577;DHT22;1298;51.252;6.802;2022-12-19T05:40:19;2.70;99.90
2577;DHT22;1298;51.252;6.802;2022-12-19T05:43:05;2.70;99.90
2577;DHT22;1298;51.252;6.802;2022-12-19T05:45:51;2.80;99.90
2577;DHT22;1298;51.252;6.802;2022-12-19T05:48:37;2.80;99.90
2577;DHT22;1298;51.252;6.802;2022-12-19T05:51:24;2.80;99.90
2577;DHT22;1298;51.252;6.802;2022-12-19T05:54:09;2.80;99.90
2577;DHT22;1298;51.252;6.802;2022-12-19T05:56:55;2.90;99.90
2577;DHT22;1298;51.252;6.802;2022-12-19T05:59:40;2.90;99.90
2577;DHT22;1298;51.252;6.802;2022-12-19T06:02:25;2.90;99.90
2577;DHT22;1298;51.252;6.802;2022-12-19T06:05:10;3.00;99.90
2577;DHT22;1298;51.252;6.802;2022-12-19T06:07:57;3.00;99.90
2577;DHT22;1298;51.252;6.802;2022-12-19T06:10:43;3.00;99.90
2577;DHT22;1298;51.252;6.802;2022-12-19T06:13:28;3.00;99.90
2577;DHT22;1298;51.252;6.802;2022-12-19T06:16:14;3.00;99.90
2577;DHT22;1298;51.252;6.802;2022-12-19T06:19:00;3.00;99.90
2577;DHT22;1298;51.252;6.802;2022-12-19T06:21:45;3.10;99.90
2577;DHT22;1298;51.252;6.802;2022-12-19T06:24:31;3.10;99.90
2577;DHT22;1298;51.252;6.802;2022-12-19T06:27:17;3.10;99.90
2577;DHT22;1298;51.252;6.802;2022-12-19T06:30:02;3.20;99.90
2577;DHT22;1298;51.252;6.802;2022-12-19T06:32:48;3.20;99.90
2577;DHT22;1298;51.252;6.802;2022-12-19T06:35:34;3.20;99.90
2577;DHT22;1298;51.252;6.802;2022-12-19T06:38:20;3.30;99.90
2577;DHT22;1298;51.252;6.802;2022-12-19T06:41:07;3.30;99.90
2577;DHT22;1298;51.252;6.802;2022-12-19T06:44:12;3.40;99.90
2577;DHT22;1298;51.252;6.802;2022-12-19T06:46:58;3.40;99.90
2577;DHT22;1298;51.252;6.802;2022-12-19T06:49:43;3.40;99.90
2577;DHT22;1298;51.252;6.802;2022-12-19T06:52:29;3.50;99.90
2577;DHT22;1298;51.252;6.802;2022-12-19T06:55:15;3.50;99.90
2577;DHT22;1298;51.252;6.802;2022-12-19T06:58:02;3.60;99.90
2577;DHT22;1298;51.252;6.802;2022-12-19T07:00:48;3.60;99.90
2577;DHT22;1298;51.252;6.802;2022-12-19T07:03:34;3.60;99.90
2577;DHT22;1298;51.252;6.802;2022-12-19T07:06:21;3.70;99.90
2577;DHT22;1298;51.252;6.802;2022-12-19T07:09:06;3.80;99.90
2577;DHT22;1298;51.252;6.802;2022-12-19T07:11:51;3.80;99.90
2577;DHT22;1298;51.252;6.802;2022-12-19T07:14:38;3.90;99.90
2577;DHT22;1298;51.252;6.802;2022-12-19T07:17:23;3.90;99.90
2577;DHT22;1298;51.252;6.802;2022-12-19T07:20:10;3.90;99.90
2577;DHT22;1298;51.252;6.802;2022-12-19T07:22:56;3.90;99.90
2577;DHT22;1298;51.252;6.802;2022-12-19T07:25:42;3.90;99.90
2577;DHT22;1298;51.252;6.802;2022-12-19T07:28:27;4.00;99.90
2577;DHT22;1298;51.252;6.802;2022-12-19T07:31:14;4.00;99.90
2577;DHT22;1298;51.252;6.802;2022-12-19T07:33:59;4.00;99.90
2577;DHT22;1298;51.252;6.802;2022-12-19T07:36:44;4.10;99.90
2577;DHT22;1298;51.252;6.802;2022-12-19T07:39:30;4.10;99.90
2577;DHT22;1298;51.252;6.802;2022-12-19T07:42:15;4.10;99.90
2577;DHT22;1298;51.252;6.802;2022-12-19T07:45:00;4.10;99.90
2577;DHT22;1298;51.252;6.802;2022-12-19T07:47:47;4.20;99.90
2577;DHT22;1298;51.252;6.802;2022-12-19T07:50:32;4.20;99.90
2577;DHT22;1298;51.252;6.802;2022-12-19T07:53:18;4.30;99.90
2577;DHT22;1298;51.252;6.802;2022-12-19T07:56:03;4.30;99.90
2577;DHT22;1298;51.252;6.802;2022-12-19T07:58:48;4.30;99.90
2577;DHT22;1298;51.252;6.802;2022-12-19T08:01:34;4.30;99.90
2577;DHT22;1298;51.252;6.802;2022-12-19T08:04:21;4.30;99.90
2577;DHT22;1298;51.252;6.802;2022-12-19T08:07:07;4.30;99.90
2577;DHT22;1298;51.252;6.802;2022-12-19T08:09:52;4.40;99.90
2577;DHT22;1298;51.252;6.802;2022-12-19T08:12:37;4.40;99.90
2577;DHT22;1298;51.252;6.802;2022-12-19T08:15:23;4.40;99.90
2577;DHT22;1298;51.252;6.802;2022-12-19T08:18:08;4.50;99.90
2577;DHT22;1298;51.252;6.802;2022-12-19T08:20:55;4.50;99.90
2577;DHT22;1298;51.252;6.802;2022-12-19T08:23:40;4.50;99.90
2577;DHT22;1298;51.252;6.802;2022-12-19T08:26:26;4.50;99.90
2577;DHT22;1298;51.252;6.802;2022-12-19T08:29:11;4.60;99.90
2577;DHT22;1298;51.252;6.802;2022-12-19T08:31:56;4.60;99.90
2577;DHT22;1298;51.252;6.802;2022-12-19T08:34:41;4.70;99.90
2577;DHT22;1298;51.252;6.802;2022-12-19T08:37:29;4.70;99.90
2577;DHT22;1298;51.252;6.802;2022-12-19T08:40:14;4.70;99.90
2577;DHT22;1298;51.252;6.802;2022-12-19T08:42:59;4.70;99.90
2577;DHT22;1298;51.252;6.802;2022-12-19T08:45:46;4.80;99.90
2577;DHT22;1298;51.252;6.802;2022-12-19T08:48:32;4.80;99.90
2577;DHT22;1298;51.252;6.802;2022-12-19T08:51:18;4.80;99.90
2577;DHT22;1298;51.252;6.802;2022-12-19T08:54:05;4.80;99.90
2577;DHT22;1298;51.252;6.802;2022-12-19T08:56:50;4.80;99.90
2577;DHT22;1298;51.252;6.802;2022-12-19T08:59:35;4.90;99.90
2577;DHT22;1298;51.252;6.802;2022-12-19T09:02:21;4.90;99.90
2577;DHT22;1298;51.252;6.802;2022-12-19T09:05:07;4.90;99.90
2577;DHT22;1298;51.252;6.802;2022-12-19T09:07:53;4.90;99.90
2577;DHT22;1298;51.252;6.802;2022-12-19T09:10:40;4.90;99.90
2577;DHT22;1298;51.252;6.802;2022-12-19T09:13:25;5.00;99.90
2577;DHT22;1298;51.252;6.802;2022-12-19T09:16:11;5.00;99.90
2577;DHT22;1298;51.252;6.802;2022-12-19T09:18:57;5.10;99.90
2577;DHT22;1298;51.252;6.802;2022-12-19T09:21:42;5.10;99.90
2577;DHT22;1298;51.252;6.802;2022-12-19T09:24:28;5.20;99.90
2577;DHT22;1298;51.252;6.802;2022-12-19T09:27:17;5.20;99.90
2577;DHT22;1298;51.252;6.802;2022-12-19T09:30:03;5.30;99.90
2577;DHT22;1298;51.252;6.802;2022-12-19T09:32:48;5.30;99.90
2577;DHT22;1298;51.252;6.802;2022-12-19T09:35:34;5.30;99.90
2577;DHT22;1298;51.252;6.802;2022-12-19T09:38:20;5.40;99.90
2577;DHT22;1298;51.252;6.802;2022-12-19T09:41:18;5.40;99.90
2577;DHT22;1298;51.252;6.802;2022-12-19T09:44:13;5.40;99.90
2577;DHT22;1298;51.252;6.802;2022-12-19T09:47:01;5.50;99.90
2577;DHT22;1298;51.252;6.802;2022-12-19T09:49:47;5.50;99.90
2577;DHT22;1298;51.252;6.802;2022-12-19T09:52:34;5.50;99.90
2577;DHT22;1298;51.252;6.802;2022-12-19T09:55:21;5.60;99.90
2577;DHT22;1298;51.252;6.802;2022-12-19T09:58:10;5.60;99.90
2577;DHT22;1298;51.252;6.802;2022-12-19T10:00:57;5.70;99.90
2577;DHT22;1298;51.252;6.802;2022-12-19T10:03:46;5.70;99.90
2577;DHT22;1298;51.252;6.802;2022-12-19T10:06:31;5.70;99.90
2577;DHT22;1298;51.252;6.802;2022-12-19T10:09:18;5.70;99.90
2577;DHT22;1298;51.252;6.802;2022-12-19T10:12:08;5.70;99.90
2577;DHT22;1298;51.252;6.802;2022-12-19T10:14:58;5.70;99.90
2577;DHT22;1298;51.252;6.802;2022-12-19T10:20:47;5.70;99.90
2577;DHT22;1298;51.252;6.802;2022-12-19T10:23:39;5.70;99.90
2577;DHT22;1298;51.252;6.802;2022-12-19T10:26:33;5.70;99.90
2577;DHT22;1298;51.252;6.802;2022-12-19T10:29:29;5.70;99.90
2577;DHT22;1298;51.252;6.802;2022-12-19T10:32:19;5.80;99.90
2577;DHT22;1298;51.252;6.802;2022-12-19T10:35:10;5.80;99.90
2577;DHT22;1298;51.252;6.802;2022-12-19T10:37:59;5.80;99.90
2577;DHT22;1298;51.252;6.802;2022-12-19T10:40:52;5.80;99.90
2577;DHT22;1298;51.252;6.802;2022-12-19T10:43:39;5.80;99.90
2577;DHT22;1298;51.252;6.802;2022-12-19T10:46:35;5.90;99.90
2577;DHT22;1298;51.252;6.802;2022-12-19T10:49:23;5.90;99.90
2577;DHT22;1298;51.252;6.802;2022-12-19T10:52:10;5.90;99.90
2577;DHT22;1298;51.252;6.802;2022-12-19T10:54:56;6.00;99.90
2577;DHT22;1298;51.252;6.802;2022-12-19T10:57:42;6.10;99.90
2577;DHT22;1298;51.252;6.802;2022-12-19T11:00:27;6.00;99.90
2577;DHT22;1298;51.252;6.802;2022-12-19T11:03:14;6.10;99.90
2577;DHT22;1298;51.252;6.802;2022-12-19T11:06:01;6.10;99.90
2577;DHT22;1298;51.252;6.802;2022-12-19T11:08:48;6.10;99.90
2577;DHT22;1298;51.252;6.802;2022-12-19T11:11:36;6.10;99.90
2577;DHT22;1298;51.252;6.802;2022-12-19T11:14:22;6.20;99.90
2577;DHT22;1298;51.252;6.802;2022-12-19T11:20:10;6.10;99.90
2577;DHT22;1298;51.252;6.802;2022-12-19T11:22:57;6.20;99.90
2577;DHT22;1298;51.252;6.802;2022-12-19T11:25:43;6.20;99.90
2577;DHT22;1298;51.252;6.802;2022-12-19T11:28:38;6.20;99.90
2577;DHT22;1298;51.252;6.802;2022-12-19T11:31:24;6.30;99.90
2577;DHT22;1298;51.252;6.802;2022-12-19T11:34:14;6.30;99.90
2577;DHT22;1298;51.252;6.802;2022-12-19T11:37:02;6.30;99.90
2577;DHT22;1298;51.252;6.802;2022-12-19T11:39:54;6.40;99.90
2577;DHT22;1298;51.252;6.802;2022-12-19T11:42:45;6.40;99.90
2577;DHT22;1298;51.252;6.802;2022-12-19T11:45:38;6.40;99.90
2577;DHT22;1298;51.252;6.802;2022-12-19T11:48:27;6.40;99.90
2577;DHT22;1298;51.252;6.802;2022-12-19T11:51:15;6.40;99.90
2577;DHT22;1298;51.252;6.802;2022-12-19T11:54:03;6.40;99.90
2577;DHT22;1298;51.252;6.802;2022-12-19T11:56:51;6.50;99.90
2577;DHT22;1298;51.252;6.802;2022-12-19T11:59:37;6.50;99.90
2577;DHT22;1298;51.252;6.802;2022-12-19T12:02:37;6.50;99.90
2577;DHT22;1298;51.252;6.802;2022-12-19T12:05:32;6.60;99.90
2577;DHT22;1298;51.252;6.802;2022-12-19T12:08:26;6.70;99.90
2577;DHT22;1298;51.252;6.802;2022-12-19T12:11:28;6.70;99.90
2577;DHT22;1298;51.252;6.802;2022-12-19T12:14:20;6.70;99.90
2577;DHT22;1298;51.252;6.802;2022-12-19T12:17:17;6.80;99.90
2577;DHT22;1298;51.252;6.802;2022-12-19T12:20:13;6.90;99.90
2577;DHT22;1298;51.252;6.802;2022-12-19T12:23:02;6.90;99.90
2577;DHT22;1298;51.252;6.802;2022-12-19T12:25:52;7.00;99.90
2577;DHT22;1298;51.252;6.802;2022-12-19T12:28:45;7.10;99.90
2577;DHT22;1298;51.252;6.802;2022-12-19T12:31:34;7.20;99.90
2577;DHT22;1298;51.252;6.802;2022-12-19T12:37:26;7.20;99.90
2577;DHT22;1298;51.252;6.802;2022-12-19T12:40:17;7.20;99.90
2577;DHT22;1298;51.252;6.802;2022-12-19T12:43:08;7.30;99.90
2577;DHT22;1298;51.252;6.802;2022-12-19T12:46:00;7.30;99.90
2577;DHT22;1298;51.252;6.802;2022-12-19T12:48:47;7.30;99.90
2577;DHT22;1298;51.252;6.802;2022-12-19T12:51:34;7.30;99.90
2577;DHT22;1298;51.252;6.802;2022-12-19T12:54:22;7.40;99.90
2577;DHT22;1298;51.252;6.802;2022-12-19T12:57:17;7.40;99.90
2577;DHT22;1298;51.252;6.802;2022-12-19T13:00:14;7.40;99.90
2577;DHT22;1298;51.252;6.802;2022-12-19T13:03:02;7.40;99.90
2577;DHT22;1298;51.252;6.802;2022-12-19T13:05:53;7.50;99.90
2577;DHT22;1298;51.252;6.802;2022-12-19T13:08:47;7.50;99.90
2577;DHT22;1298;51.252;6.802;2022-12-19T13:11:36;7.40;99.90
2577;DHT22;1298;51.252;6.802;2022-12-19T13:14:41;7.50;99.90
2577;DHT22;1298;51.252;6.802;2022-12-19T13:20:39;7.60;99.90
2577;DHT22;1298;51.252;6.802;2022-12-19T13:26:45;7.80;99.90
2577;DHT22;1298;51.252;6.802;2022-12-19T13:29:33;7.80;99.90
2577;DHT22;1298;51.252;6.802;2022-12-19T13:33:04;7.70;99.90
2577;DHT22;1298;51.252;6.802;2022-12-19T13:35:39;7.70;99.90
2577;DHT22;1298;51.252;6.802;2022-12-19T13:38:25;7.60;99.90
2577;DHT22;1298;51.252;6.802;2022-12-19T13:41:23;7.60;99.90
2577;DHT22;1298;51.252;6.802;2022-12-19T13:44:29;7.50;99.90
2577;DHT22;1298;51.252;6.802;2022-12-19T13:47:15;7.50;99.90
2577;DHT22;1298;51.252;6.802;2022-12-19T13:50:03;7.50;99.90
2577;DHT22;1298;51.252;6.802;2022-12-19T13:52:49;7.40;99.90
2577;DHT22;1298;51.252;6.802;2022-12-19T13:55:38;7.40;99.90
2577;DHT22;1298;51.252;6.802;2022-12-19T13:58:24;7.30;99.90
2577;DHT22;1298;51.252;6.802;2022-12-19T14:01:14;7.30;99.90
2577;DHT22;1298;51.252;6.802;2022-12-19T14:04:03;7.30;99.90
2577;DHT22;1298;51.252;6.802;2022-12-19T14:06:48;7.30;99.90
2577;DHT22;1298;51.252;6.802;2022-12-19T14:09:37;7.30;99.90
2577;DHT22;1298;51.252;6.802;2022-12-19T14:12:24;7.30;99.90
2577;DHT22;1298;51.252;6.802;2022-12-19T14:15:29;7.20;99.90
2577;DHT22;1298;51.252;6.802;2022-12-19T14:18:17;7.20;99.90
2577;DHT22;1298;51.252;6.802;2022-12-19T14:21:06;7.20;99.90
2577;DHT22;1298;51.252;6.802;2022-12-19T14:24:09;7.10;99.90
2577;DHT22;1298;51.252;6.802;2022-12-19T14:26:56;7.10;99.90
2577;DHT22;1298;51.252;6.802;2022-12-19T14:29:43;7.10;99.90
2577;DHT22;1298;51.252;6.802;2022-12-19T14:32:30;7.10;99.90
2577;DHT22;1298;51.252;6.802;2022-12-19T14:35:18;7.10;99.90
2577;DHT22;1298;51.252;6.802;2022-12-19T14:38:06;7.10;99.90
2577;DHT22;1298;51.252;6.802;2022-12-19T14:40:51;7.10;99.90
2577;DHT22;1298;51.252;6.802;2022-12-19T14:43:36;7.10;99.90
2577;DHT22;1298;51.252;6.802;2022-12-19T14:46:25;7.10;99.90
2577;DHT22;1298;51.252;6.802;2022-12-19T14:49:21;7.00;99.90
2577;DHT22;1298;51.252;6.802;2022-12-19T14:55:25;7.00;99.90
2577;DHT22;1298;51.252;6.802;2022-12-19T14:58:13;7.00;99.90
2577;DHT22;1298;51.252;6.802;2022-12-19T15:01:01;7.00;99.90
2577;DHT22;1298;51.252;6.802;2022-12-19T15:03:49;7.00;99.90
2577;DHT22;1298;51.252;6.802;2022-12-19T15:06:36;6.90;99.90
2577;DHT22;1298;51.252;6.802;2022-12-19T15:09:25;6.90;99.90
2577;DHT22;1298;51.252;6.802;2022-12-19T15:12:12;6.90;99.90
2577;DHT22;1298;51.252;6.802;2022-12-19T15:15:18;6.90;99.90
2577;DHT22;1298;51.252;6.802;2022-12-19T15:18:13;6.90;99.90
2577;DHT22;1298;51.252;6.802;2022-12-19T15:21:00;6.90;99.90
2577;DHT22;1298;51.252;6.802;2022-12-19T15:23:46;6.90;99.90
2577;DHT22;1298;51.252;6.802;2022-12-19T15:26:32;7.00;99.90
2577;DHT22;1298;51.252;6.802;2022-12-19T15:29:19;7.00;99.90
2577;DHT22;1298;51.252;6.802;2022-12-19T15:32:04;7.00;99.90
2577;DHT22;1298;51.252;6.802;2022-12-19T15:34:49;7.00;99.90
2577;DHT22;1298;51.252;6.802;2022-12-19T15:37:35;7.00;99.90
2577;DHT22;1298;51.252;6.802;2022-12-19T15:40:20;7.00;99.90
2577;DHT22;1298;51.252;6.802;2022-12-19T15:43:06;7.00;99.90
2577;DHT22;1298;51.252;6.802;2022-12-19T15:45:53;7.00;99.90
2577;DHT22;1298;51.252;6.802;2022-12-19T15:48:44;7.00;99.90
2577;DHT22;1298;51.252;6.802;2022-12-19T15:51:30;7.10;99.90
2577;DHT22;1298;51.252;6.802;2022-12-19T15:54:15;7.10;99.90
2577;DHT22;1298;51.252;6.802;2022-12-19T15:57:01;7.10;99.90
2577;DHT22;1298;51.252;6.802;2022-12-19T15:59:46;7.10;99.90
2577;DHT22;1298;51.252;6.802;2022-12-19T16:02:33;7.10;99.90
2577;DHT22;1298;51.252;6.802;2022-12-19T16:05:18;7.20;99.90
2577;DHT22;1298;51.252;6.802;2022-12-19T16:08:05;7.20;99.90
2577;DHT22;1298;51.252;6.802;2022-12-19T16:10:54;7.20;99.90
2577;DHT22;1298;51.252;6.802;2022-12-19T16:13:40;7.20;99.90
2577;DHT22;1298;51.252;6.802;2022-12-19T16:16:26;7.30;99.90
2577;DHT22;1298;51.252;6.802;2022-12-19T16:19:24;7.30;99.90
2577;DHT22;1298;51.252;6.802;2022-12-19T16:22:14;7.30;99.90
2577;DHT22;1298;51.252;6.802;2022-12-19T16:25:00;7.30;99.90
2577;DHT22;1298;51.252;6.802;2022-12-19T16:27:47;7.30;99.90
2577;DHT22;1298;51.252;6.802;2022-12-19T16:30:34;7.30;99.90
2577;DHT22;1298;51.252;6.802;2022-12-19T16:33:20;7.30;99.90
2577;DHT22;1298;51.252;6.802;2022-12-19T16:36:08;7.30;99.90
2577;DHT22;1298;51.252;6.802;2022-12-19T16:38:53;7.30;99.90
2577;DHT22;1298;51.252;6.802;2022-12-19T16:41:39;7.30;99.90
2577;DHT22;1298;51.252;6.802;2022-12-19T16:44:24;7.30;99.90
2577;DHT22;1298;51.252;6.802;2022-12-19T16:47:10;7.30;99.90
2577;DHT22;1298;51.252;6.802;2022-12-19T16:49:55;7.30;99.90
2577;DHT22;1298;51.252;6.802;2022-12-19T16:52:42;7.30;99.90
2577;DHT22;1298;51.252;6.802;2022-12-19T16:55:27;7.30;99.90
2577;DHT22;1298;51.252;6.802;2022-12-19T16:58:14;7.30;99.90
2577;DHT22;1298;51.252;6.802;2022-12-19T17:01:00;7.30;99.90
2577;DHT22;1298;51.252;6.802;2022-12-19T17:03:45;7.30;99.90
2577;DHT22;1298;51.252;6.802;2022-12-19T17:06:30;7.30;99.90
2577;DHT22;1298;51.252;6.802;2022-12-19T17:09:17;7.30;99.90
2577;DHT22;1298;51.252;6.802;2022-12-19T17:12:08;7.30;99.90
2577;DHT22;1298;51.252;6.802;2022-12-19T17:14:59;7.40;99.90
2577;DHT22;1298;51.252;6.802;2022-12-19T17:17:45;7.40;99.90
2577;DHT22;1298;51.252;6.802;2022-12-19T17:20:32;7.40;99.90
2577;DHT22;1298;51.252;6.802;2022-12-19T17:23:20;7.40;99.90
2577;DHT22;1298;51.252;6.802;2022-12-19T17:26:07;7.50;99.90
2577;DHT22;1298;51.252;6.802;2022-12-19T17:28:53;7.50;99.90
2577;DHT22;1298;51.252;6.802;2022-12-19T17:31:39;7.50;99.90
2577;DHT22;1298;51.252;6.802;2022-12-19T17:34:26;7.50;99.90
2577;DHT22;1298;51.252;6.802;2022-12-19T17:37:13;7.50;99.90
2577;DHT22;1298;51.252;6.802;2022-12-19T17:39:59;7.60;99.90
2577;DHT22;1298;51.252;6.802;2022-12-19T17:42:46;7.70;99.90
2577;DHT22;1298;51.252;6.802;2022-12-19T17:45:31;7.70;99.90
2577;DHT22;1298;51.252;6.802;2022-12-19T17:48:20;7.70;99.90
2577;DHT22;1298;51.252;6.802;2022-12-19T17:51:07;7.70;99.90
2577;DHT22;1298;51.252;6.802;2022-12-19T17:53:52;7.60;99.90
2577;DHT22;1298;51.252;6.802;2022-12-19T17:56:38;7.70;99.90
2577;DHT22;1298;51.252;6.802;2022-12-19T17:59:25;7.70;99.90
2577;DHT22;1298;51.252;6.802;2022-12-19T18:02:16;7.70;99.90
2577;DHT22;1298;51.252;6.802;2022-12-19T18:05:02;7.70;99.90
2577;DHT22;1298;51.252;6.802;2022-12-19T18:07:48;7.70;99.90
2577;DHT22;1298;51.252;6.802;2022-12-19T18:10:34;7.70;99.90
2577;DHT22;1298;51.252;6.802;2022-12-19T18:13:19;7.80;99.90
2577;DHT22;1298;51.252;6.802;2022-12-19T18:16:08;7.80;99.90
2577;DHT22;1298;51.252;6.802;2022-12-19T18:18:54;7.70;99.90
2577;DHT22;1298;51.252;6.802;2022-12-19T18:21:39;7.80;99.90
2577;DHT22;1298;51.252;6.802;2022-12-19T18:24:25;7.80;99.90
2577;DHT22;1298;51.252;6.802;2022-12-19T18:27:10;7.80;99.90
2577;DHT22;1298;51.252;6.802;2022-12-19T18:29:55;7.80;99.90
2577;DHT22;1298;51.252;6.802;2022-12-19T18:32:42;7.80;99.90
2577;DHT22;1298;51.252;6.802;2022-12-19T18:35:33;7.80;99.90
2577;DHT22;1298;51.252;6.802;2022-12-19T18:38:19;7.80;99.90
2577;DHT22;1298;51.252;6.802;2022-12-19T18:41:07;7.80;99.90
2577;DHT22;1298;51.252;6.802;2022-12-19T18:43:54;7.90;99.90
2577;DHT22;1298;51.252;6.802;2022-12-19T18:46:39;7.90;99.90
2577;DHT22;1298;51.252;6.802;2022-12-19T18:49:26;7.90;99.90
2577;DHT22;1298;51.252;6.802;2022-12-19T18:52:12;7.90;99.90
2577;DHT22;1298;51.252;6.802;2022-12-19T18:54:57;7.90;99.90
2577;DHT22;1298;51.252;6.802;2022-12-19T18:57:42;7.90;99.90